Penngrove, California
Current Conditions -  °F | °C
As of 9:35 PM on Sunday 21 Dec 2014 (Local Time) from KDVO Reporting Station
Clear Clear  
Wind Chill: 16°   Ceiling: Unl
Heat Index: 16°   Visibility: 10mi
Dew Point: 14°   Wind: 7mph
Humidity: 88%   Direction: 210°SSW
Pressure: 30.28"   Gusts: NA
Location:  38.3°N, 122.67°W
Report Text: KDVO 220535Z AUTO 21006KT 10SM CLR 16/14 A3028 RMK AO2
Loading
Personal Weather Stations






























Interactive Weather Map New forecast layout! Learn more

10-Day Weather Forecast

Advertisements
Track Severe Weather on mobile